createdAt,value
2023-01-02T00:01:42.752Z,3.90
2023-01-02T00:06:44.917Z,11.32
2023-01-02T00:11:46.661Z,6.30
2023-01-02T00:16:48.384Z,2.78
2023-01-02T00:21:50.196Z,1.77
2023-01-02T00:26:51.891Z,1.67
2023-01-02T00:31:53.705Z,1.73
2023-01-02T00:36:55.878Z,1.95
2023-01-02T00:41:57.710Z,2.05
2023-01-02T00:46:59.539Z,1.83
2023-01-02T00:52:01.389Z,1.60
2023-01-02T00:57:03.274Z,1.98
2023-01-02T01:02:05.428Z,3.13
2023-01-02T01:07:07.185Z,5.78
2023-01-02T01:12:09.768Z,3.85
2023-01-02T01:17:11.555Z,2.85
2023-01-02T01:22:13.314Z,3.08
2023-01-02T01:27:15.107Z,4.50
2023-01-02T01:32:16.877Z,4.78
2023-01-02T01:37:18.686Z,4.40
2023-01-02T01:42:20.544Z,2.38
2023-01-02T01:47:35.352Z,2.47
2023-01-02T01:52:41.964Z,2.65
2023-01-02T01:57:51.317Z,2.30
2023-01-02T02:03:01.510Z,2.20
2023-01-02T02:08:08.507Z,2.20
2023-01-02T02:13:10.489Z,2.30
2023-01-02T02:18:20.847Z,2.53
2023-01-02T02:23:41.428Z,3.90
2023-01-02T02:29:16.765Z,5.60
2023-01-02T02:34:41.479Z,4.10
2023-01-02T02:39:52.108Z,1.92
2023-01-02T02:45:06.498Z,1.33
2023-01-02T02:50:32.534Z,6.60
2023-01-02T02:55:46.067Z,2.30
2023-01-02T03:00:48.070Z,2.13
2023-01-02T03:06:18.164Z,1.83
2023-01-02T03:11:26.796Z,1.95
2023-01-02T03:16:35.672Z,1.00
2023-01-02T03:21:40.574Z,1.92
2023-01-02T03:26:47.793Z,3.03
2023-01-02T03:31:54.148Z,2.15
2023-01-02T03:37:04.237Z,1.75
2023-01-02T03:42:14.109Z,1.50
2023-01-02T03:47:39.553Z,1.88
2023-01-02T03:52:41.410Z,2.38
2023-01-02T03:57:48.826Z,2.75
2023-01-02T04:03:16.831Z,3.17
2023-01-02T04:08:28.616Z,5.85
2023-01-02T04:13:39.558Z,3.35
2023-01-02T04:18:48.654Z,1.35
2023-01-02T04:24:12.725Z,1.90
2023-01-02T04:29:14.744Z,1.50
2023-01-02T04:34:19.370Z,1.40
2023-01-02T04:39:23.306Z,1.60
2023-01-02T04:44:25.087Z,1.75
2023-01-02T04:49:27.325Z,2.30
2023-01-02T04:54:30.352Z,2.90
2023-01-02T04:59:32.795Z,1.40
2023-01-02T05:04:35.361Z,1.50
2023-01-02T05:09:40.248Z,1.20
2023-01-02T05:14:42.763Z,1.42
2023-01-02T05:19:45.123Z,1.55
2023-01-02T05:24:48.171Z,3.95
2023-01-02T05:29:50.480Z,7.95
2023-01-02T05:34:52.643Z,6.50
2023-01-02T05:39:54.603Z,4.28
2023-01-02T05:44:56.564Z,3.28
2023-01-02T05:49:59.037Z,1.75
2023-01-02T05:55:01.513Z,1.73
2023-01-02T06:00:04.798Z,1.77
2023-01-02T06:05:06.939Z,1.70
2023-01-02T06:10:09.142Z,3.30
2023-01-02T06:15:11.238Z,1.75
2023-01-02T06:20:13.122Z,1.42
2023-01-02T06:25:14.926Z,2.10
2023-01-02T06:30:17.153Z,1.52
2023-01-02T06:35:19.349Z,1.52
2023-01-02T06:40:21.483Z,2.35
2023-01-02T06:45:23.727Z,1.77
2023-01-02T06:50:31.236Z,1.95
2023-01-02T06:55:36.512Z,1.42
2023-01-02T07:00:38.730Z,1.83
2023-01-02T07:05:41.000Z,2.33
2023-01-02T07:10:45.567Z,1.95
2023-01-02T07:15:51.151Z,1.35
2023-01-02T07:20:56.037Z,1.42
2023-01-02T07:26:03.678Z,3.72
2023-01-02T07:31:08.869Z,4.22
2023-01-02T07:36:16.845Z,1.45
2023-01-02T07:41:22.044Z,2.00
2023-01-02T07:46:24.802Z,5.93
2023-01-02T07:51:27.659Z,3.30
2023-01-02T07:56:30.158Z,1.42
2023-01-02T08:01:32.293Z,1.83
2023-01-02T08:06:34.847Z,1.17
2023-01-02T08:11:37.633Z,2.55
2023-01-02T08:16:39.712Z,3.17
2023-01-02T08:21:41.491Z,2.80
2023-01-02T08:26:43.426Z,2.97
2023-01-02T08:31:45.329Z,2.47
2023-01-02T08:36:47.112Z,2.65
2023-01-02T08:41:48.862Z,2.08
2023-01-02T08:46:50.829Z,1.58
2023-01-02T08:51:52.958Z,1.67
2023-01-02T08:56:54.764Z,3.58
2023-01-02T09:01:56.551Z,17.08
2023-01-02T09:06:58.304Z,17.42
2023-01-02T09:12:00.564Z,13.10
2023-01-02T09:17:03.832Z,10.00
2023-01-02T09:22:05.932Z,9.38
2023-01-02T09:27:08.078Z,13.40
2023-01-02T09:32:09.853Z,28.83
2023-01-02T09:37:11.682Z,18.83
2023-01-02T09:42:17.213Z,16.98
2023-01-02T09:47:26.342Z,14.88
2023-01-02T09:52:53.702Z,14.95
2023-01-02T09:58:04.713Z,13.65
2023-01-02T10:03:23.602Z,16.52
2023-01-02T10:08:43.914Z,16.33
2023-01-02T10:19:41.523Z,17.30
2023-01-02T10:24:56.407Z,16.67
2023-01-02T10:30:18.924Z,15.77
2023-01-02T10:35:33.780Z,12.75
2023-01-02T10:40:38.083Z,8.23
2023-01-02T10:45:40.747Z,9.77
2023-01-02T10:50:48.538Z,8.75
2023-01-02T10:55:50.293Z,5.68
2023-01-02T11:01:05.085Z,5.05
2023-01-02T11:06:33.728Z,4.53
2023-01-02T11:11:52.721Z,4.20
2023-01-02T11:16:58.474Z,3.90
2023-01-02T11:22:00.885Z,3.92
2023-01-02T11:27:03.320Z,4.28
2023-01-02T11:32:05.225Z,3.90
2023-01-02T11:37:13.177Z,3.60
2023-01-02T11:42:42.731Z,3.88
2023-01-02T11:47:47.495Z,3.05
2023-01-02T11:53:01.690Z,3.30
2023-01-02T11:58:12.467Z,4.65
2023-01-02T12:03:19.387Z,8.30
2023-01-02T12:08:21.280Z,4.65
2023-01-02T12:13:31.453Z,3.92
2023-01-02T12:18:39.835Z,4.23
2023-01-02T12:24:02.538Z,2.58
2023-01-02T12:29:04.258Z,2.60
2023-01-02T12:34:50.075Z,2.67
2023-01-02T12:40:17.604Z,2.33
2023-01-02T12:45:40.359Z,2.95
2023-01-02T12:51:04.654Z,2.08
2023-01-02T12:56:45.300Z,2.70
2023-01-02T13:02:04.242Z,3.60
2023-01-02T13:07:32.757Z,2.22
2023-01-02T13:12:35.941Z,2.95
2023-01-02T13:18:17.379Z,3.08
2023-01-02T13:23:43.280Z,2.25
2023-01-02T13:29:06.895Z,6.55
2023-01-02T13:34:22.451Z,4.32
2023-01-02T13:39:39.897Z,2.30
2023-01-02T13:44:46.205Z,2.10
2023-01-02T13:49:56.287Z,2.00
2023-01-02T13:55:31.201Z,2.80
2023-01-02T14:00:38.339Z,2.47
2023-01-02T14:05:58.704Z,3.63
2023-01-02T14:11:09.245Z,2.60
2023-01-02T14:16:23.031Z,2.60
2023-01-02T14:21:36.911Z,1.95
2023-01-02T14:26:41.628Z,2.13
2023-01-02T14:31:43.773Z,1.73
2023-01-02T14:36:48.406Z,5.47
2023-01-02T14:42:08.507Z,4.05
2023-01-02T14:47:14.653Z,2.70
2023-01-02T14:52:27.010Z,2.20
2023-01-02T14:57:38.631Z,2.33
2023-01-02T15:02:44.649Z,8.52
2023-01-02T15:07:51.133Z,8.75
2023-01-02T15:13:06.318Z,6.72
2023-01-02T15:18:31.861Z,4.97
2023-01-02T15:23:33.984Z,5.32
2023-01-02T15:28:35.772Z,4.57
2023-01-02T15:33:37.971Z,10.63
2023-01-02T15:38:40.439Z,13.82
2023-01-02T15:44:01.662Z,5.88
2023-01-02T15:49:04.985Z,4.55
2023-01-02T15:54:06.903Z,7.40
2023-01-02T15:59:29.948Z,9.55
2023-01-02T16:04:33.829Z,10.77
2023-01-02T16:09:35.620Z,6.65
2023-01-02T16:14:44.427Z,5.35
2023-01-02T16:20:01.979Z,11.20
2023-01-02T16:25:28.939Z,3.33
2023-01-02T16:30:38.047Z,3.50
2023-01-02T16:35:58.212Z,3.90
2023-01-02T16:41:04.584Z,2.78
2023-01-02T16:46:12.048Z,2.60
2023-01-02T16:51:15.024Z,1.88
2023-01-02T16:56:18.319Z,4.15
2023-01-02T17:01:22.654Z,2.22
2023-01-02T17:06:24.530Z,3.90
2023-01-02T17:11:26.476Z,2.72
2023-01-02T17:16:28.279Z,3.00
2023-01-02T17:21:32.931Z,3.60
2023-01-02T17:26:35.071Z,2.75
2023-01-02T17:31:36.989Z,2.05
2023-01-02T17:36:38.870Z,1.70
2023-01-02T17:41:40.708Z,2.08
2023-01-02T17:47:15.798Z,2.00
2023-01-02T17:52:04.433Z,2.05
2023-01-02T17:57:06.492Z,2.47
2023-01-02T18:02:08.436Z,2.38
2023-01-02T18:07:11.985Z,2.13
2023-01-02T18:12:13.890Z,2.30
2023-01-02T18:17:28.292Z,2.58
2023-01-02T18:22:32.049Z,1.65
2023-01-02T18:27:34.917Z,2.33
2023-01-02T18:32:39.429Z,2.35
2023-01-02T18:37:41.850Z,4.60
2023-01-02T18:42:46.435Z,4.50
2023-01-02T18:47:55.098Z,3.40
2023-01-02T18:52:57.043Z,7.43
2023-01-02T18:58:08.099Z,1.05
2023-01-02T19:03:25.536Z,0.77
2023-01-02T19:08:37.477Z,2.65
2023-01-02T19:13:39.330Z,0.90
2023-01-02T19:18:46.272Z,1.20
2023-01-02T19:23:55.186Z,0.80
2023-01-02T19:29:11.211Z,3.47
2023-01-02T19:34:40.925Z,1.67
2023-01-02T19:39:52.836Z,1.20
2023-01-02T19:44:58.773Z,0.73
2023-01-02T19:50:01.343Z,0.80
2023-01-02T19:55:04.760Z,2.90
2023-01-02T20:00:09.388Z,0.45
2023-01-02T20:05:13.604Z,0.70
2023-01-02T20:10:18.502Z,0.52
2023-01-02T20:15:25.724Z,0.52
2023-01-02T20:20:29.621Z,0.80
2023-01-02T20:25:31.461Z,0.57
2023-01-02T20:30:33.206Z,0.95
2023-01-02T20:35:35.318Z,0.68
2023-01-02T20:40:37.468Z,0.70
2023-01-02T20:45:39.226Z,2.75
2023-01-02T20:50:41.027Z,0.60
2023-01-02T20:55:42.916Z,0.63
2023-01-02T21:00:44.870Z,0.60
2023-01-02T21:05:46.673Z,0.60
2023-01-02T21:10:48.401Z,0.65
2023-01-02T21:15:51.943Z,1.38
2023-01-02T21:20:59.333Z,0.88
2023-01-02T21:26:02.086Z,0.50
2023-01-02T21:31:04.613Z,0.65
2023-01-02T21:36:08.757Z,0.45
2023-01-02T21:41:30.391Z,0.65
2023-01-02T21:46:32.201Z,0.60
2023-01-02T21:51:34.088Z,20.88
2023-01-02T21:56:36.224Z,0.85
2023-01-02T22:01:38.559Z,0.65
2023-01-02T22:07:04.368Z,0.50
2023-01-02T22:12:02.989Z,0.80
2023-01-02T22:17:08.478Z,0.57
2023-01-02T22:22:12.545Z,0.50
2023-01-02T22:27:17.241Z,0.90
2023-01-02T22:32:19.236Z,0.95
2023-01-02T22:37:22.890Z,1.10
2023-01-02T22:43:03.925Z,1.17
2023-01-02T22:48:17.360Z,1.30
2023-01-02T22:53:21.098Z,1.02
2023-01-02T22:58:24.267Z,1.15
2023-01-02T23:03:29.505Z,1.80
2023-01-02T23:08:31.484Z,1.35
2023-01-02T23:13:34.777Z,1.30
2023-01-02T23:18:57.160Z,1.70
2023-01-02T23:24:00.122Z,1.45
2023-01-02T23:29:07.092Z,1.40
2023-01-02T23:34:10.624Z,1.27
2023-01-02T23:39:18.049Z,1.02
2023-01-02T23:44:20.805Z,1.27
2023-01-02T23:49:23.652Z,1.20
2023-01-02T23:54:25.589Z,1.45
2023-01-02T23:59:27.578Z,1.45
